createdAt,value
2022-12-22T00:02:06.842Z,4.78
2022-12-22T00:04:53.048Z,4.74
2022-12-22T00:07:39.219Z,4.81
2022-12-22T00:10:25.741Z,4.75
2022-12-22T00:13:11.880Z,4.76
2022-12-22T00:15:57.681Z,4.75
2022-12-22T00:18:45.241Z,4.76
2022-12-22T00:21:32.089Z,4.74
2022-12-22T00:24:18.348Z,4.71
2022-12-22T00:27:05.111Z,4.54
2022-12-22T00:29:57.503Z,4.60
2022-12-22T00:32:53.325Z,4.72
2022-12-22T00:35:43.292Z,4.62
2022-12-22T00:38:36.855Z,4.63
2022-12-22T00:41:23.816Z,4.66
2022-12-22T00:44:10.058Z,4.61
2022-12-22T00:46:59.300Z,4.52
2022-12-22T00:49:48.143Z,4.60
2022-12-22T00:52:36.072Z,4.56
2022-12-22T00:55:31.064Z,4.64
2022-12-22T00:58:18.123Z,4.61
2022-12-22T01:01:04.307Z,4.60
2022-12-22T01:03:50.410Z,4.44
2022-12-22T01:06:36.231Z,4.46
2022-12-22T01:09:24.146Z,4.43
2022-12-22T01:12:10.273Z,4.55
2022-12-22T01:14:56.176Z,4.59
2022-12-22T01:17:41.914Z,4.59
2022-12-22T01:20:28.394Z,4.57
2022-12-22T01:23:14.578Z,4.52
2022-12-22T01:26:00.868Z,4.43
2022-12-22T01:28:46.803Z,4.38
2022-12-22T01:31:46.716Z,4.57
2022-12-22T01:34:32.643Z,4.55
2022-12-22T01:37:18.783Z,4.57
2022-12-22T01:40:04.956Z,4.66
2022-12-22T01:42:52.973Z,4.68
2022-12-22T01:45:41.252Z,4.74
2022-12-22T01:48:35.472Z,4.71
2022-12-22T01:51:25.609Z,4.75
2022-12-22T01:54:12.751Z,4.87
2022-12-22T01:56:59.309Z,4.78
2022-12-22T01:59:45.479Z,4.94
2022-12-22T02:02:32.064Z,4.94
2022-12-22T02:05:20.353Z,4.93
2022-12-22T02:08:21.820Z,4.94
2022-12-22T02:11:59.127Z,4.91
2022-12-22T02:15:31.858Z,4.82
2022-12-22T02:18:38.168Z,4.72
2022-12-22T02:21:32.074Z,4.72
2022-12-22T02:24:55.598Z,4.80
2022-12-22T02:27:43.606Z,4.84
2022-12-22T02:30:30.670Z,4.88
2022-12-22T02:33:17.631Z,4.86
2022-12-22T02:36:30.551Z,4.84
2022-12-22T02:39:39.504Z,4.71
2022-12-22T02:42:42.933Z,4.69
2022-12-22T02:45:50.838Z,4.92
2022-12-22T02:48:59.821Z,4.93
2022-12-22T02:51:48.896Z,4.83
2022-12-22T02:54:36.660Z,4.78
2022-12-22T02:57:25.262Z,4.93
2022-12-22T03:00:11.427Z,5.02
2022-12-22T03:02:57.558Z,4.86
2022-12-22T03:05:43.577Z,4.95
2022-12-22T03:08:29.298Z,4.90
2022-12-22T03:11:15.459Z,4.84
2022-12-22T03:14:01.386Z,4.75
2022-12-22T03:16:47.397Z,4.81
2022-12-22T03:19:33.340Z,4.66
2022-12-22T03:22:19.235Z,4.54
2022-12-22T03:25:04.916Z,4.68
2022-12-22T03:27:32.656Z,4.50
2022-12-22T03:29:59.900Z,4.43
2022-12-22T03:32:27.423Z,4.65
2022-12-22T03:34:54.818Z,4.41
2022-12-22T03:37:22.409Z,4.45
2022-12-22T03:39:49.656Z,4.61
2022-12-22T03:42:35.602Z,4.58
2022-12-22T03:45:21.394Z,4.73
2022-12-22T03:47:48.979Z,4.54
2022-12-22T03:50:16.285Z,4.41
2022-12-22T03:52:43.853Z,4.36
2022-12-22T03:55:11.283Z,4.30
2022-12-22T03:57:38.817Z,4.53
2022-12-22T04:00:06.953Z,4.46
2022-12-22T04:02:39.695Z,4.75
2022-12-22T04:05:07.624Z,4.81
2022-12-22T04:07:35.156Z,4.73
2022-12-22T04:10:21.178Z,4.89
2022-12-22T04:12:55.123Z,4.97
2022-12-22T04:15:26.879Z,4.96
2022-12-22T04:17:55.095Z,4.86
2022-12-22T04:20:24.160Z,4.97
2022-12-22T04:22:51.703Z,5.03
2022-12-22T04:25:19.180Z,5.04
2022-12-22T04:27:46.822Z,4.93
2022-12-22T04:30:15.086Z,5.04
2022-12-22T04:32:42.925Z,5.02
2022-12-22T04:35:11.100Z,4.98
2022-12-22T04:37:38.667Z,4.98
2022-12-22T04:40:06.646Z,4.81
2022-12-22T04:42:34.249Z,4.89
2022-12-22T04:45:01.485Z,4.99
2022-12-22T04:47:29.033Z,4.99
2022-12-22T04:49:56.579Z,5.04
2022-12-22T04:52:24.167Z,5.05
2022-12-22T04:54:51.378Z,5.07
2022-12-22T04:57:19.720Z,5.01
2022-12-22T04:59:47.447Z,4.97
2022-12-22T05:02:15.193Z,5.08
2022-12-22T05:04:42.523Z,5.02
2022-12-22T05:07:10.136Z,5.05
2022-12-22T05:09:37.454Z,5.04
2022-12-22T05:12:25.359Z,5.02
2022-12-22T05:14:53.078Z,4.97
2022-12-22T05:17:20.584Z,5.06
2022-12-22T05:19:47.943Z,5.02
2022-12-22T05:22:15.593Z,5.01
2022-12-22T05:24:42.844Z,5.02
2022-12-22T05:27:11.704Z,4.90
2022-12-22T05:29:39.039Z,4.91
2022-12-22T05:32:06.639Z,4.89
2022-12-22T05:34:33.954Z,5.02
2022-12-22T05:37:01.718Z,5.04
2022-12-22T05:39:29.046Z,5.02
2022-12-22T05:41:56.591Z,4.80
2022-12-22T05:44:23.823Z,4.87
2022-12-22T05:46:54.384Z,4.82
2022-12-22T05:49:21.692Z,4.81
2022-12-22T05:51:50.002Z,4.74
2022-12-22T05:54:17.277Z,4.72
2022-12-22T05:56:44.850Z,4.84
2022-12-22T05:59:12.477Z,4.92
2022-12-22T06:01:40.124Z,4.96
2022-12-22T06:04:07.533Z,4.90
2022-12-22T06:06:35.093Z,4.79
2022-12-22T06:09:02.373Z,4.70
2022-12-22T06:11:29.926Z,4.30
2022-12-22T06:13:57.272Z,4.53
2022-12-22T06:16:24.879Z,4.36
2022-12-22T06:18:52.235Z,4.45
2022-12-22T06:21:19.825Z,4.62
2022-12-22T06:23:47.159Z,4.40
2022-12-22T06:26:14.693Z,4.43
2022-12-22T06:28:41.895Z,4.35
2022-12-22T06:31:09.586Z,4.35
2022-12-22T06:33:37.010Z,4.22
2022-12-22T06:36:06.295Z,4.28
2022-12-22T06:38:34.526Z,4.30
2022-12-22T06:41:02.341Z,4.23
2022-12-22T06:43:29.723Z,4.51
2022-12-22T06:45:57.370Z,4.43
2022-12-22T06:48:24.793Z,4.51
2022-12-22T06:50:52.363Z,4.41
2022-12-22T06:53:19.615Z,4.33
2022-12-22T06:55:47.237Z,4.23
2022-12-22T06:58:14.496Z,4.05
2022-12-22T07:00:43.218Z,4.04
2022-12-22T07:03:10.651Z,3.89
2022-12-22T07:05:38.373Z,3.86
2022-12-22T07:08:08.887Z,3.60
2022-12-22T07:10:55.926Z,3.63
2022-12-22T07:13:24.523Z,3.52
2022-12-22T07:15:59.493Z,3.47
2022-12-22T07:18:32.999Z,3.56
2022-12-22T07:21:02.176Z,3.59
2022-12-22T07:23:30.396Z,3.71
2022-12-22T07:25:58.845Z,3.95
2022-12-22T07:28:26.948Z,3.86
2022-12-22T07:30:55.696Z,3.99
2022-12-22T07:33:23.389Z,4.00
2022-12-22T07:36:11.740Z,3.95
2022-12-22T07:38:41.976Z,3.90
2022-12-22T07:41:29.671Z,3.95
2022-12-22T07:43:59.197Z,3.78
2022-12-22T07:46:29.338Z,3.74
2022-12-22T07:49:15.335Z,3.65
2022-12-22T07:51:43.304Z,3.87
2022-12-22T07:54:13.750Z,4.17
2022-12-22T07:56:42.271Z,4.20
2022-12-22T07:59:10.896Z,4.29
2022-12-22T08:01:40.095Z,4.21
2022-12-22T08:04:12.477Z,4.04
2022-12-22T08:06:40.728Z,4.12
2022-12-22T08:09:08.958Z,4.16
2022-12-22T08:11:36.807Z,4.29
2022-12-22T08:14:04.122Z,4.23
2022-12-22T08:16:31.951Z,4.03
2022-12-22T08:18:59.258Z,3.94
2022-12-22T08:21:26.868Z,4.16
2022-12-22T08:23:54.122Z,4.30
2022-12-22T08:26:40.800Z,4.41
2022-12-22T08:29:13.942Z,4.49
2022-12-22T08:31:42.106Z,4.65
2022-12-22T08:34:13.022Z,4.63
2022-12-22T08:36:44.976Z,4.88
2022-12-22T08:39:13.380Z,4.75
2022-12-22T08:41:50.207Z,4.90
2022-12-22T08:44:22.995Z,5.23
2022-12-22T08:46:52.702Z,5.00
2022-12-22T08:49:20.329Z,5.33
2022-12-22T08:51:48.037Z,5.34
2022-12-22T08:54:15.726Z,5.33
2022-12-22T08:56:44.252Z,5.36
2022-12-22T08:59:12.598Z,5.23
2022-12-22T09:01:48.248Z,5.49
2022-12-22T09:04:19.797Z,5.54
2022-12-22T09:06:48.446Z,5.89
2022-12-22T09:09:16.739Z,5.91
2022-12-22T09:11:44.458Z,5.97
2022-12-22T09:14:12.737Z,5.75
2022-12-22T09:16:40.883Z,5.48
2022-12-22T09:19:08.955Z,5.70
2022-12-22T09:21:36.602Z,5.61
2022-12-22T09:24:07.783Z,5.46
2022-12-22T09:26:36.172Z,5.03
2022-12-22T09:29:04.217Z,5.35
2022-12-22T09:31:32.574Z,5.20
2022-12-22T09:34:00.521Z,5.46
2022-12-22T09:36:31.014Z,4.99
2022-12-22T09:38:58.517Z,5.15
2022-12-22T09:41:35.146Z,5.13
2022-12-22T09:44:20.124Z,5.21
2022-12-22T09:46:47.965Z,5.31
2022-12-22T09:49:18.694Z,5.35
2022-12-22T09:52:22.807Z,5.40
2022-12-22T09:54:50.800Z,5.45
2022-12-22T09:57:18.579Z,5.42
2022-12-22T09:59:45.993Z,5.11
2022-12-22T10:02:34.915Z,5.04
2022-12-22T10:05:31.093Z,4.77
2022-12-22T10:08:02.033Z,4.82
2022-12-22T10:10:31.637Z,5.02
2022-12-22T10:13:02.107Z,5.20
2022-12-22T10:15:37.926Z,5.05
2022-12-22T10:18:15.141Z,5.24
2022-12-22T10:20:45.570Z,5.38
2022-12-22T10:23:29.009Z,5.79
2022-12-22T10:28:47.855Z,6.49
2022-12-22T10:31:21.846Z,6.84
2022-12-22T10:33:52.576Z,6.59
2022-12-22T10:36:31.667Z,6.74
2022-12-22T10:39:03.219Z,6.66
2022-12-22T10:41:47.061Z,6.75
2022-12-22T10:44:17.295Z,7.20
2022-12-22T10:46:51.199Z,7.25
2022-12-22T10:49:23.174Z,6.42
2022-12-22T10:52:13.719Z,5.45
2022-12-22T10:54:42.876Z,5.93
2022-12-22T10:57:18.893Z,5.70
2022-12-22T11:00:00.995Z,5.82
2022-12-22T11:02:38.956Z,5.33
2022-12-22T11:05:09.562Z,5.76
2022-12-22T11:07:47.491Z,5.42
2022-12-22T11:10:15.093Z,5.52
2022-12-22T11:13:02.518Z,5.72
2022-12-22T11:15:51.876Z,5.63
2022-12-22T11:18:34.135Z,6.06
2022-12-22T11:21:24.515Z,6.27
2022-12-22T11:24:21.704Z,6.50
2022-12-22T11:27:27.913Z,6.21
2022-12-22T11:30:07.840Z,5.79
2022-12-22T11:32:54.564Z,5.96
2022-12-22T11:36:01.613Z,5.47
2022-12-22T11:38:48.249Z,5.45
2022-12-22T11:41:34.924Z,5.58
2022-12-22T11:44:24.380Z,5.75
2022-12-22T11:47:00.674Z,5.68
2022-12-22T11:49:40.564Z,5.84
2022-12-22T11:52:13.973Z,5.90
2022-12-22T11:54:44.866Z,5.86
2022-12-22T11:57:27.112Z,5.97
2022-12-22T12:00:04.081Z,6.01
2022-12-22T12:03:06.966Z,5.88
2022-12-22T12:05:54.629Z,5.61
2022-12-22T12:08:26.842Z,5.47
2022-12-22T12:11:18.560Z,5.77
2022-12-22T12:14:13.325Z,5.35
2022-12-22T12:16:49.566Z,5.06
2022-12-22T12:19:28.266Z,5.25
2022-12-22T12:22:03.979Z,5.38
2022-12-22T12:24:55.434Z,5.21
2022-12-22T12:27:44.373Z,4.73
2022-12-22T12:33:21.492Z,4.97
2022-12-22T12:35:53.150Z,5.04
2022-12-22T12:41:45.680Z,4.95
2022-12-22T12:44:15.969Z,4.82
2022-12-22T12:46:54.194Z,4.80
2022-12-22T12:49:58.724Z,4.75
2022-12-22T12:52:52.158Z,4.75
2022-12-22T12:55:32.848Z,4.81
2022-12-22T12:58:04.708Z,4.65
2022-12-22T13:00:32.607Z,4.46
2022-12-22T13:03:00.872Z,4.49
2022-12-22T13:06:02.702Z,4.66
2022-12-22T13:08:31.956Z,4.68
2022-12-22T13:10:59.517Z,4.38
2022-12-22T13:13:26.717Z,4.43
2022-12-22T13:16:00.530Z,4.54
2022-12-22T13:18:30.805Z,4.37
2022-12-22T13:21:42.062Z,4.35
2022-12-22T13:26:47.220Z,4.30
2022-12-22T13:29:20.505Z,4.52
2022-12-22T13:32:02.083Z,4.37
2022-12-22T13:34:51.363Z,4.18
2022-12-22T13:37:27.622Z,4.10
2022-12-22T13:40:15.647Z,4.04
2022-12-22T13:42:47.828Z,4.23
2022-12-22T13:45:32.744Z,4.11
2022-12-22T13:48:02.477Z,4.27
2022-12-22T13:50:34.673Z,4.36
2022-12-22T13:53:04.054Z,4.37
2022-12-22T13:55:33.196Z,4.29
2022-12-22T13:58:29.949Z,4.18
2022-12-22T14:01:17.378Z,4.22
2022-12-22T14:04:00.223Z,4.06
2022-12-22T14:06:30.229Z,4.13
2022-12-22T14:09:12.821Z,3.97
2022-12-22T14:11:47.092Z,3.93
2022-12-22T14:14:23.797Z,4.07
2022-12-22T14:16:54.063Z,4.07
2022-12-22T14:19:23.738Z,4.17
2022-12-22T14:22:10.087Z,4.39
2022-12-22T14:24:44.823Z,4.18
2022-12-22T14:27:36.522Z,4.33
2022-12-22T14:30:07.773Z,4.29
2022-12-22T14:32:41.559Z,4.24
2022-12-22T14:35:21.336Z,4.38
2022-12-22T14:38:13.599Z,4.18
2022-12-22T14:40:43.661Z,4.44
2022-12-22T14:43:34.737Z,4.44
2022-12-22T14:46:09.021Z,4.56
2022-12-22T14:48:45.861Z,4.63
2022-12-22T14:51:20.169Z,4.33
2022-12-22T14:53:56.761Z,4.49
2022-12-22T14:56:26.785Z,4.48
2022-12-22T14:59:12.411Z,4.26
2022-12-22T15:01:40.224Z,4.57
2022-12-22T15:04:17.427Z,4.68
2022-12-22T15:06:48.140Z,4.34
2022-12-22T15:09:15.357Z,4.41
2022-12-22T15:12:11.269Z,4.57
2022-12-22T15:14:39.226Z,4.47
2022-12-22T15:17:15.731Z,4.61
2022-12-22T15:19:43.076Z,4.45
2022-12-22T15:22:12.413Z,4.38
2022-12-22T15:24:39.744Z,4.51
2022-12-22T15:27:08.587Z,4.55
2022-12-22T15:29:35.897Z,4.52
2022-12-22T15:32:03.739Z,4.57
2022-12-22T15:34:32.087Z,4.37
2022-12-22T15:36:59.639Z,4.43
2022-12-22T15:39:26.949Z,4.57
2022-12-22T15:41:54.898Z,4.46
2022-12-22T15:44:22.650Z,4.55
2022-12-22T15:46:57.775Z,4.72
2022-12-22T15:49:28.054Z,4.67
2022-12-22T15:51:59.324Z,4.73
2022-12-22T15:54:28.136Z,4.80
2022-12-22T15:56:56.196Z,4.64
2022-12-22T15:59:25.808Z,4.53
2022-12-22T16:02:00.486Z,4.62
2022-12-22T16:04:29.561Z,4.54
2022-12-22T16:06:59.207Z,4.58
2022-12-22T16:09:32.648Z,4.76
2022-12-22T16:12:00.397Z,4.86
2022-12-22T16:14:29.276Z,4.87
2022-12-22T16:16:58.896Z,4.87
2022-12-22T16:19:26.159Z,4.93
2022-12-22T16:21:54.290Z,4.77
2022-12-22T16:24:36.079Z,4.58
2022-12-22T16:27:04.336Z,4.86
2022-12-22T16:29:31.645Z,4.88
2022-12-22T16:32:23.295Z,4.96
2022-12-22T16:34:50.708Z,4.87
2022-12-22T16:37:18.396Z,4.99
2022-12-22T16:39:46.644Z,5.01
2022-12-22T16:45:04.459Z,5.28
2022-12-22T16:47:35.593Z,5.35
2022-12-22T16:50:03.077Z,5.18
2022-12-22T16:52:41.473Z,5.09
2022-12-22T16:55:16.833Z,5.27
2022-12-22T16:57:44.826Z,5.24
2022-12-22T17:00:21.525Z,5.09
2022-12-22T17:02:55.382Z,5.29
2022-12-22T17:05:31.873Z,5.23
2022-12-22T17:08:00.831Z,5.26
2022-12-22T17:10:28.082Z,5.41
2022-12-22T17:12:58.528Z,5.55
2022-12-22T17:15:25.804Z,5.52
2022-12-22T17:17:54.112Z,5.68
2022-12-22T17:20:23.777Z,5.61
2022-12-22T17:22:58.901Z,5.53
2022-12-22T17:25:31.279Z,5.46
2022-12-22T17:28:01.959Z,5.53
2022-12-22T17:30:29.279Z,5.56
2022-12-22T17:32:57.046Z,5.70
2022-12-22T17:35:26.083Z,5.79
2022-12-22T17:37:54.566Z,5.44
2022-12-22T17:40:24.756Z,5.66
2022-12-22T17:42:53.674Z,5.72
2022-12-22T17:45:21.371Z,5.74
2022-12-22T17:47:49.178Z,5.66
2022-12-22T17:50:20.075Z,5.64
2022-12-22T17:52:49.260Z,5.68
2022-12-22T17:56:05.643Z,5.68
2022-12-22T17:58:17.233Z,5.62
2022-12-22T18:00:44.982Z,5.53
2022-12-22T18:03:14.699Z,5.49
2022-12-22T18:05:47.060Z,5.27
2022-12-22T18:08:20.182Z,5.33
2022-12-22T18:10:48.444Z,5.21
2022-12-22T18:13:20.238Z,5.24
2022-12-22T18:15:47.650Z,5.15
2022-12-22T18:18:17.078Z,5.12
2022-12-22T18:21:07.374Z,5.07
2022-12-22T18:23:37.187Z,5.12
2022-12-22T18:26:08.508Z,5.21
2022-12-22T18:28:36.965Z,5.19
2022-12-22T18:31:04.267Z,5.11
2022-12-22T18:33:31.945Z,5.10
2022-12-22T18:35:59.872Z,4.96
2022-12-22T18:38:33.386Z,5.03
2022-12-22T18:41:00.899Z,5.18
2022-12-22T18:43:28.490Z,5.15
2022-12-22T18:45:55.876Z,5.13
2022-12-22T18:48:23.488Z,5.14
2022-12-22T18:50:50.862Z,5.02
2022-12-22T18:53:21.433Z,5.15
2022-12-22T18:55:48.858Z,4.93
2022-12-22T18:58:16.485Z,4.92
2022-12-22T19:00:44.544Z,5.01
2022-12-22T19:03:21.778Z,5.14
2022-12-22T19:05:50.149Z,5.14
2022-12-22T19:08:23.272Z,5.04
2022-12-22T19:10:56.886Z,5.15
2022-12-22T19:13:39.541Z,5.13
2022-12-22T19:16:07.839Z,5.19
2022-12-22T19:18:35.540Z,5.14
2022-12-22T19:21:02.824Z,4.99
2022-12-22T19:23:30.474Z,4.91
2022-12-22T19:26:08.575Z,5.02
2022-12-22T19:28:43.066Z,5.02
2022-12-22T19:31:20.881Z,5.05
2022-12-22T19:33:49.620Z,5.00
2022-12-22T19:36:21.826Z,5.08
2022-12-22T19:38:51.085Z,4.88
2022-12-22T19:41:43.001Z,5.02
2022-12-22T19:44:25.073Z,4.90
2022-12-22T19:46:53.966Z,4.91
2022-12-22T19:49:30.011Z,5.00
2022-12-22T19:51:58.285Z,5.07
2022-12-22T19:54:25.873Z,5.11
2022-12-22T19:56:55.730Z,5.12
2022-12-22T19:59:41.404Z,5.14
2022-12-22T20:02:21.445Z,5.23
2022-12-22T20:04:49.961Z,5.19
2022-12-22T20:07:19.456Z,5.11
2022-12-22T20:09:47.380Z,5.13
2022-12-22T20:12:23.694Z,5.09
2022-12-22T20:14:52.115Z,4.96
2022-12-22T20:17:19.897Z,4.82
2022-12-22T20:19:48.053Z,4.81
2022-12-22T20:22:21.286Z,4.82
2022-12-22T20:24:50.679Z,4.75
2022-12-22T20:27:22.580Z,4.94
2022-12-22T20:29:50.338Z,4.99
2022-12-22T20:32:22.385Z,5.01
2022-12-22T20:34:54.883Z,4.93
2022-12-22T20:37:22.407Z,4.88
2022-12-22T20:39:49.970Z,4.74
2022-12-22T20:42:23.569Z,4.76
2022-12-22T20:45:02.569Z,4.68
2022-12-22T20:47:34.461Z,4.63
2022-12-22T20:50:02.269Z,4.53
2022-12-22T20:52:29.652Z,4.46
2022-12-22T20:54:57.200Z,4.66
2022-12-22T20:57:25.971Z,4.54
2022-12-22T20:59:56.480Z,4.45
2022-12-22T21:02:28.172Z,4.49
2022-12-22T21:04:56.590Z,4.44
2022-12-22T21:07:24.123Z,4.47
2022-12-22T21:09:51.713Z,4.48
2022-12-22T21:12:19.067Z,4.78
2022-12-22T21:14:46.641Z,4.78
2022-12-22T21:17:18.241Z,4.83
2022-12-22T21:19:45.837Z,4.75
2022-12-22T21:22:13.121Z,4.97
2022-12-22T21:24:41.901Z,5.06
2022-12-22T21:27:17.202Z,5.11
2022-12-22T21:29:45.063Z,5.15
2022-12-22T21:32:15.899Z,5.27
2022-12-22T21:34:43.551Z,5.10
2022-12-22T21:37:19.015Z,5.14
2022-12-22T21:39:46.645Z,5.22
2022-12-22T21:42:18.730Z,5.10
2022-12-22T21:44:46.569Z,5.18
2022-12-22T21:47:16.609Z,5.28
2022-12-22T21:49:44.429Z,5.15
2022-12-22T21:52:11.753Z,5.03
2022-12-22T21:54:39.570Z,4.98
2022-12-22T21:57:06.877Z,5.24
2022-12-22T21:59:34.417Z,5.57
2022-12-22T22:02:01.741Z,5.32
2022-12-22T22:04:29.473Z,5.46
2022-12-22T22:06:57.962Z,5.37
2022-12-22T22:09:25.551Z,5.40
2022-12-22T22:12:11.305Z,5.38
2022-12-22T22:14:38.849Z,5.35
2022-12-22T22:17:06.190Z,5.13
2022-12-22T22:19:33.801Z,5.10
2022-12-22T22:22:01.067Z,5.19
2022-12-22T22:24:31.102Z,5.48
2022-12-22T22:26:59.239Z,5.48
2022-12-22T22:29:26.837Z,5.35
2022-12-22T22:31:54.154Z,5.26
2022-12-22T22:34:21.751Z,5.39
2022-12-22T22:36:49.266Z,5.40
2022-12-22T22:39:17.039Z,5.35
2022-12-22T22:41:44.290Z,5.43
2022-12-22T22:44:12.341Z,5.53
2022-12-22T22:46:40.726Z,5.48
2022-12-22T22:49:08.689Z,5.41
2022-12-22T22:51:36.133Z,5.47
2022-12-22T22:54:03.929Z,5.43
2022-12-22T22:56:31.184Z,5.25
2022-12-22T22:58:59.578Z,5.06
2022-12-22T23:01:27.039Z,5.32
2022-12-22T23:03:55.788Z,5.38
2022-12-22T23:06:23.178Z,5.25
2022-12-22T23:08:51.007Z,5.15
2022-12-22T23:11:18.303Z,5.24
2022-12-22T23:13:46.064Z,5.04
2022-12-22T23:16:13.644Z,5.06
2022-12-22T23:18:41.364Z,5.04
2022-12-22T23:21:09.639Z,4.77
2022-12-22T23:23:37.350Z,4.62
2022-12-22T23:26:04.983Z,4.64
2022-12-22T23:28:33.800Z,4.67
2022-12-22T23:31:01.390Z,4.94
2022-12-22T23:33:31.845Z,4.61
2022-12-22T23:35:59.337Z,4.51
2022-12-22T23:38:27.033Z,4.43
2022-12-22T23:41:02.945Z,4.26
2022-12-22T23:43:31.063Z,4.26
2022-12-22T23:45:58.808Z,4.36
2022-12-22T23:48:26.351Z,4.26
2022-12-22T23:50:53.678Z,4.23
2022-12-22T23:53:21.348Z,4.30
2022-12-22T23:55:49.694Z,4.26
2022-12-22T23:58:17.799Z,4.30
